Time;durP1;ratioP1;P1;durP2;ratioP2;P2;SDS_P1;SDS_P2;PMS_P1;PMS_P2;Temp;Humidity;BMP_temperature;BMP_pressure;BME280_temperature;BME280_humidity;BME280_pressure;Samples;Min_cycle;Max_cycle;Signal;HPM_P1;HPM_P2
2023/01/11 00:00:21;;;;;;;7.23;3.07;;;;;;;-145.18;100.00;60484.78;5048085;28;20064;-70
2023/01/11 00:02:47;;;;;;;8.43;3.87;;;;;;;-145.18;100.00;60484.78;5049866;28;20044;-70
2023/01/11 00:05:12;;;;;;;8.30;4.20;;;;;;;-145.18;100.00;60484.78;5050241;28;20032;-69
2023/01/11 00:07:39;;;;;;;5.90;3.63;;;;;;;-145.18;100.00;60484.78;5051838;28;20024;-69
2023/01/11 00:10:08;;;;;;;7.93;3.80;;;;;;;-145.18;100.00;60484.78;5051051;28;20500;-69
2023/01/11 00:12:33;;;;;;;6.33;3.57;;;;;;;-145.18;100.00;60484.78;5048561;28;20086;-69
2023/01/11 00:14:59;;;;;;;8.40;3.80;;;;;;;-145.18;100.00;60484.78;5047567;28;20029;-69
2023/01/11 00:17:24;;;;;;;11.63;3.97;;;;;;;-145.18;100.00;60484.78;5048850;28;20047;-70
2023/01/11 00:19:49;;;;;;;7.13;3.93;;;;;;;-145.18;100.00;60484.78;5049852;28;20029;-70
2023/01/11 00:22:15;;;;;;;6.03;3.17;;;;;;;-145.18;100.00;60484.78;5049843;28;20480;-69
2023/01/11 00:24:40;;;;;;;5.30;3.20;;;;;;;-145.18;100.00;60484.78;5051407;28;20036;-69
2023/01/11 00:27:05;;;;;;;6.10;3.50;;;;;;;-145.18;100.00;60484.78;5049087;28;20146;-69
2023/01/11 00:29:31;;;;;;;6.83;4.27;;;;;;;-145.18;100.00;60484.78;5050716;28;20482;-70
2023/01/11 00:31:56;;;;;;;6.70;2.83;;;;;;;-145.18;100.00;60484.78;5051681;28;20025;-69
2023/01/11 00:34:22;;;;;;;6.27;4.20;;;;;;;-145.18;100.00;60484.78;5050959;28;20036;-70
2023/01/11 00:36:47;;;;;;;7.00;3.93;;;;;;;-145.18;100.00;60484.78;5050835;28;20021;-69
2023/01/11 00:39:12;;;;;;;5.70;3.90;;;;;;;-145.18;100.00;60484.78;5049979;28;20032;-69
2023/01/11 00:49:57;;;;;;;6.93;3.97;;;;;;;-145.18;100.00;60484.78;5049047;28;20127;-69
2023/01/11 00:52:22;;;;;;;7.27;4.70;;;;;;;-145.18;100.00;60484.78;5050455;28;20029;-70
2023/01/11 00:54:48;;;;;;;10.30;5.67;;;;;;;-145.18;100.00;60484.78;5049785;28;20071;-70
2023/01/11 00:57:13;;;;;;;6.57;4.20;;;;;;;-145.18;100.00;60484.78;5048729;28;20013;-69
2023/01/11 00:59:39;;;;;;;7.30;5.30;;;;;;;-145.18;100.00;60484.78;5050037;28;20059;-69
2023/01/11 01:02:04;;;;;;;14.57;3.63;;;;;;;-145.18;100.00;60484.78;5049003;28;20466;-69
2023/01/11 01:04:30;;;;;;;7.47;4.57;;;;;;;-145.18;100.00;60484.78;5048532;28;20033;-69
2023/01/11 01:06:55;;;;;;;4.83;2.93;;;;;;;-145.18;100.00;60484.78;5049883;28;20033;-69
2023/01/11 01:09:21;;;;;;;8.73;4.83;;;;;;;-145.18;100.00;60484.78;5050367;28;20074;-69
2023/01/11 01:11:46;;;;;;;7.30;4.07;;;;;;;-145.18;100.00;60484.78;5050351;28;20029;-69
2023/01/11 01:14:25;;;;;;;10.13;4.07;;;;;;;-145.18;100.00;60484.78;5065320;28;20123;-69
2023/01/11 01:16:51;;;;;;;6.57;4.60;;;;;;;-145.18;100.00;60484.78;5049226;28;20013;-69
2023/01/11 01:19:18;;;;;;;5.03;3.50;;;;;;;-145.18;100.00;60484.78;5049734;28;20498;-69
2023/01/11 01:21:43;;;;;;;5.40;4.33;;;;;;;-145.18;100.00;60484.78;5048238;28;20419;-69
2023/01/11 01:24:09;;;;;;;6.70;4.37;;;;;;;-145.18;100.00;60484.78;5047485;28;20031;-69
2023/01/11 01:26:34;;;;;;;6.03;3.93;;;;;;;-145.18;100.00;60484.78;5049895;28;20425;-69
2023/01/11 01:28:59;;;;;;;6.80;3.70;;;;;;;-145.18;100.00;60484.78;5048503;28;20021;-69
2023/01/11 01:31:25;;;;;;;7.93;3.83;;;;;;;-145.18;100.00;60484.78;5049755;28;20028;-69
2023/01/11 01:33:50;;;;;;;6.07;4.53;;;;;;;-145.18;100.00;60484.78;5049572;28;20100;-70
2023/01/11 01:36:16;;;;;;;9.67;5.23;;;;;;;-145.18;100.00;60484.78;5050840;28;20039;-69
2023/01/11 01:38:41;;;;;;;5.23;3.20;;;;;;;-145.18;100.00;60484.78;5050391;28;20052;-69
2023/01/11 01:41:07;;;;;;;10.10;3.80;;;;;;;-145.18;100.00;60484.78;5049848;28;20031;-70
2023/01/11 01:43:56;;;;;;;7.43;4.47;;;;;;;-145.18;100.00;60484.78;5049915;28;20440;-69
2023/01/11 01:46:28;;;;;;;8.80;5.40;;;;;;;-145.18;100.00;60484.78;5044932;28;20025;-69
2023/01/11 01:48:56;;;;;;;7.20;4.90;;;;;;;-145.18;100.00;60484.78;5050208;28;20037;-69
2023/01/11 01:51:27;;;;;;;7.57;5.17;;;;;;;-145.18;100.00;60484.78;5048163;28;20033;-70
2023/01/11 01:53:56;;;;;;;7.23;4.60;;;;;;;-145.18;100.00;60484.78;5044040;28;20103;-69
2023/01/11 01:56:29;;;;;;;6.70;4.03;;;;;;;-145.18;100.00;60484.78;5049723;28;20059;-69
2023/01/11 01:59:00;;;;;;;6.80;5.17;;;;;;;-145.18;100.00;60484.78;5048824;28;20037;-69
2023/01/11 02:04:05;;;;;;;6.60;3.90;;;;;;;-145.18;100.00;60484.78;5105027;22;20035;-70
2023/01/11 02:06:32;;;;;;;7.67;4.80;;;;;;;-145.18;100.00;60484.78;5064565;28;20029;-70
2023/01/11 02:09:04;;;;;;;7.37;4.80;;;;;;;-145.18;100.00;60484.78;5064039;28;20483;-70
2023/01/11 02:11:30;;;;;;;6.07;4.17;;;;;;;-145.18;100.00;60484.78;5070085;28;20032;-70
2023/01/11 02:13:58;;;;;;;6.23;4.77;;;;;;;-145.18;100.00;60484.78;5060453;28;20033;-70
2023/01/11 02:16:23;;;;;;;7.73;4.10;;;;;;;-145.18;100.00;60484.78;5068491;28;20082;-70
2023/01/11 02:18:49;;;;;;;8.83;4.03;;;;;;;-145.18;100.00;60484.78;5068158;28;20032;-70
2023/01/11 02:21:25;;;;;;;7.50;3.80;;;;;;;-145.18;100.00;60484.78;5068956;28;20024;-70
2023/01/11 02:23:57;;;;;;;6.27;3.57;;;;;;;-145.18;100.00;60484.78;5069324;28;20021;-70
2023/01/11 02:26:41;;;;;;;7.70;4.27;;;;;;;-145.18;100.00;60484.78;5069493;28;20060;-70
2023/01/11 02:29:14;;;;;;;6.70;3.27;;;;;;;-145.18;100.00;60484.78;5068758;28;20033;-70
2023/01/11 02:31:45;;;;;;;4.57;2.97;;;;;;;-145.18;100.00;60484.78;5062659;28;20063;-70
2023/01/11 02:34:31;;;;;;;4.43;2.85;;;;;;;-145.18;100.00;60484.78;5056815;28;20025;-70
2023/01/11 02:37:02;;;;;;;9.77;2.93;;;;;;;-145.18;100.00;60484.78;5070458;28;20504;-70
2023/01/11 02:39:42;;;;;;;5.57;3.30;;;;;;;-145.18;100.00;60484.78;5072440;28;20040;-71
2023/01/11 02:45:35;;;;;;;4.63;3.30;;;;;;;-145.18;100.00;60484.78;5072866;28;20085;-71
2023/01/11 02:48:20;;;;;;;4.87;3.57;;;;;;;-145.18;100.00;60484.78;5072972;28;20503;-70
2023/01/11 02:51:11;;;;;;;4.83;2.00;;;;;;;-145.18;100.00;60484.78;5067499;28;20028;-70
2023/01/11 02:53:43;;;;;;;4.47;2.70;;;;;;;-145.18;100.00;60484.78;5070920;28;20036;-70
2023/01/11 02:56:19;;;;;;;5.53;3.20;;;;;;;-145.18;100.00;60484.78;5072727;28;20035;-70
2023/01/11 02:58:48;;;;;;;3.73;2.33;;;;;;;-145.18;100.00;60484.78;5065453;28;20479;-70
2023/01/11 03:01:13;;;;;;;4.40;2.90;;;;;;;-145.18;100.00;60484.78;5069171;28;20021;-71
2023/01/11 03:03:39;;;;;;;4.30;2.97;;;;;;;-145.18;100.00;60484.78;5058495;28;20039;-70
2023/01/11 03:06:12;;;;;;;7.90;3.10;;;;;;;-145.18;100.00;60484.78;5058400;28;20396;-71
2023/01/11 03:09:05;;;;;;;7.83;3.30;;;;;;;-145.18;100.00;60484.78;5054152;28;20091;-72
2023/01/11 03:14:46;;;;;;;4.47;2.80;;;;;;;-145.18;100.00;60484.78;5045619;28;20043;-72
2023/01/11 03:17:31;;;;;;;5.93;3.63;;;;;;;-145.18;100.00;60484.78;5061599;28;20028;-72
2023/01/11 03:20:08;;;;;;;8.03;4.07;;;;;;;-145.18;100.00;60484.78;5050833;28;20079;-72
2023/01/11 03:23:06;;;;;;;6.13;3.40;;;;;;;-145.18;100.00;60484.78;5053094;28;20036;-72
2023/01/11 03:25:44;;;;;;;6.77;4.10;;;;;;;-145.18;100.00;60484.78;5066083;28;20111;-71
2023/01/11 03:28:35;;;;;;;4.80;3.37;;;;;;;-145.18;100.00;60484.78;5068660;28;20028;-72
2023/01/11 03:31:04;;;;;;;4.68;3.83;;;;;;;-145.18;100.00;60484.78;5064067;28;20021;-72
2023/01/11 03:33:45;;;;;;;4.80;3.43;;;;;;;-145.18;100.00;60484.78;5064445;28;20040;-69
2023/01/11 03:36:39;;;;;;;8.43;4.03;;;;;;;-145.18;100.00;60484.78;5071154;28;20480;-69
2023/01/11 03:39:12;;;;;;;8.20;4.40;;;;;;;-145.18;100.00;60484.78;5055133;28;20540;-70
2023/01/11 03:41:40;;;;;;;7.20;4.17;;;;;;;-145.18;100.00;60484.78;5070402;28;20028;-70
2023/01/11 03:44:09;;;;;;;7.27;4.60;;;;;;;-145.18;100.00;60484.78;5060062;28;20388;-68
2023/01/11 03:46:48;;;;;;;6.13;4.30;;;;;;;-145.18;100.00;60484.78;5051053;28;20021;-70
2023/01/11 03:49:21;;;;;;;6.90;4.57;;;;;;;-145.18;100.00;60484.78;5051365;28;20029;-70
2023/01/11 03:51:50;;;;;;;6.63;4.57;;;;;;;-145.18;100.00;60484.78;5054731;28;20036;-70
2023/01/11 03:54:20;;;;;;;7.03;4.20;;;;;;;-145.18;100.00;60484.78;5062088;28;20022;-69
2023/01/11 03:57:09;;;;;;;7.37;4.03;;;;;;;-145.18;100.00;60484.78;5049059;28;20020;-69
2023/01/11 03:59:35;;;;;;;5.30;3.60;;;;;;;-145.18;100.00;60484.78;5067624;28;20033;-69
2023/01/11 04:02:01;;;;;;;7.93;4.57;;;;;;;-145.18;100.00;60484.78;5064266;28;20472;-69
2023/01/11 04:04:27;;;;;;;7.33;4.60;;;;;;;-145.18;100.00;60484.78;5051527;28;20036;-70
2023/01/11 04:06:52;;;;;;;6.23;4.07;;;;;;;-145.18;100.00;60484.78;5068431;28;20025;-69
2023/01/11 04:09:18;;;;;;;6.83;4.13;;;;;;;-145.18;100.00;60484.78;5068175;28;20024;-70
2023/01/11 04:11:44;;;;;;;7.10;3.77;;;;;;;-145.18;100.00;60484.78;5059590;28;20031;-69
2023/01/11 04:14:10;;;;;;;5.93;3.80;;;;;;;-145.18;100.00;60484.78;5050877;28;20021;-71
2023/01/11 04:16:35;;;;;;;5.37;3.47;;;;;;;-145.18;100.00;60484.78;5063289;28;20029;-70
2023/01/11 04:19:01;;;;;;;4.07;2.37;;;;;;;-145.18;100.00;60484.78;5046290;28;20029;-68
2023/01/11 04:21:27;;;;;;;4.97;2.67;;;;;;;-145.18;100.00;60484.78;5051109;28;20081;-69
2023/01/11 04:23:53;;;;;;;5.03;3.30;;;;;;;-145.18;100.00;60484.78;5056983;28;20069;-69
2023/01/11 04:26:18;;;;;;;4.20;2.57;;;;;;;-145.18;100.00;60484.78;5071464;28;20059;-68
2023/01/11 04:28:44;;;;;;;5.07;3.10;;;;;;;-145.18;100.00;60484.78;5058850;28;20025;-69
2023/01/11 04:31:09;;;;;;;3.77;2.37;;;;;;;-145.18;100.00;60484.78;5061725;28;20364;-69
2023/01/11 04:33:35;;;;;;;4.53;3.40;;;;;;;-145.18;100.00;60484.78;5053965;28;20676;-69
2023/01/11 04:36:08;;;;;;;3.60;2.03;;;;;;;-145.18;100.00;60484.78;5055901;28;20017;-69
2023/01/11 04:38:34;;;;;;;4.23;2.90;;;;;;;-145.18;100.00;60484.78;5039389;28;20033;-69
2023/01/11 04:43:44;;;;;;;4.00;3.03;;;;;;;-145.18;100.00;60484.78;5055694;28;20106;-69
2023/01/11 04:46:09;;;;;;;3.60;2.57;;;;;;;-145.18;100.00;60484.78;5051936;28;20512;-70
2023/01/11 04:48:38;;;;;;;4.20;3.10;;;;;;;-145.18;100.00;60484.78;5052244;28;20135;-69
2023/01/11 04:51:05;;;;;;;3.70;2.37;;;;;;;-145.18;100.00;60484.78;5055460;28;20055;-68
2023/01/11 04:53:30;;;;;;;4.37;2.40;;;;;;;-145.18;100.00;60484.78;5068878;28;20028;-69
2023/01/11 04:56:02;;;;;;;4.20;2.60;;;;;;;-145.18;100.00;60484.78;5061985;28;20388;-68
2023/01/11 04:58:28;;;;;;;5.97;3.17;;;;;;;-145.18;100.00;60484.78;5043325;28;20032;-69
2023/01/11 05:00:53;;;;;;;4.37;2.90;;;;;;;-145.18;100.00;60484.78;5060541;28;20029;-70
2023/01/11 05:03:19;;;;;;;4.00;2.37;;;;;;;-145.18;100.00;60484.78;5060216;28;20442;-69
2023/01/11 05:05:53;;;;;;;4.40;3.07;;;;;;;-145.18;100.00;60484.78;5070784;28;20025;-69
2023/01/11 05:08:19;;;;;;;4.20;2.53;;;;;;;-145.18;100.00;60484.78;5040654;28;20532;-69
2023/01/11 05:10:51;;;;;;;3.63;2.50;;;;;;;-145.18;100.00;60484.78;5063275;28;20115;-69
2023/01/11 05:13:16;;;;;;;4.43;2.90;;;;;;;-145.18;100.00;60484.78;5052889;28;20491;-69
2023/01/11 05:15:41;;;;;;;4.93;3.77;;;;;;;-145.18;100.00;60484.78;5048610;28;20029;-69
2023/01/11 05:18:07;;;;;;;6.33;3.90;;;;;;;-145.18;100.00;60484.78;5051904;28;20385;-69
2023/01/11 05:20:32;;;;;;;4.67;3.07;;;;;;;-145.18;100.00;60484.78;5058055;28;20430;-69
2023/01/11 05:22:57;;;;;;;5.37;4.30;;;;;;;-145.18;100.00;60484.78;5050686;28;20501;-70
2023/01/11 05:25:23;;;;;;;8.07;4.20;;;;;;;-145.18;100.00;60484.78;5070590;28;20035;-69
2023/01/11 05:27:48;;;;;;;5.00;3.10;;;;;;;-145.18;100.00;60484.78;5069123;28;20029;-69
2023/01/11 05:30:14;;;;;;;5.03;3.23;;;;;;;-145.18;100.00;60484.78;5066403;28;20391;-70
2023/01/11 05:32:39;;;;;;;5.23;3.77;;;;;;;-145.18;100.00;60484.78;5051545;28;20047;-69
2023/01/11 05:35:08;;;;;;;4.93;3.23;;;;;;;-145.18;100.00;60484.78;5059368;28;20021;-70
2023/01/11 05:37:34;;;;;;;5.57;4.03;;;;;;;-145.18;100.00;60484.78;5056161;28;20118;-70
2023/01/11 05:39:59;;;;;;;6.60;4.13;;;;;;;-145.18;100.00;60484.78;5050644;28;20104;-69
2023/01/11 05:42:24;;;;;;;5.27;3.30;;;;;;;-145.18;100.00;60484.78;5049803;28;20052;-68
2023/01/11 05:47:34;;;;;;;6.17;4.20;;;;;;;-145.18;100.00;60484.78;5064957;28;20114;-70
2023/01/11 05:49:59;;;;;;;6.53;4.10;;;;;;;-145.18;100.00;60484.78;5051547;28;20060;-70
2023/01/11 05:52:24;;;;;;;5.57;3.83;;;;;;;-145.18;100.00;60484.78;5053786;28;20069;-69
2023/01/11 05:54:52;;;;;;;8.60;4.97;;;;;;;-145.18;100.00;60484.78;5049921;28;20472;-68
2023/01/11 05:57:18;;;;;;;5.93;3.77;;;;;;;-145.18;100.00;60484.78;5064204;28;20017;-69
2023/01/11 05:59:43;;;;;;;6.50;4.67;;;;;;;-145.18;100.00;60484.78;5048785;28;20054;-69
2023/01/11 06:02:08;;;;;;;5.97;4.10;;;;;;;-145.18;100.00;60484.78;5049540;28;20062;-70
2023/01/11 06:04:34;;;;;;;10.00;5.70;;;;;;;-145.18;100.00;60484.78;5056033;28;20472;-70
2023/01/11 06:06:59;;;;;;;8.07;5.00;;;;;;;-145.18;100.00;60484.78;5059962;28;20117;-69
2023/01/11 06:09:24;;;;;;;6.73;4.27;;;;;;;-145.18;100.00;60484.78;5048783;28;20029;-69
2023/01/11 06:11:50;;;;;;;7.27;5.23;;;;;;;-145.18;100.00;60484.78;5051226;28;20168;-70
2023/01/11 06:14:15;;;;;;;7.70;5.40;;;;;;;-145.18;100.00;60484.78;5052951;28;20384;-69
2023/01/11 06:16:41;;;;;;;8.03;5.40;;;;;;;-145.18;100.00;60484.78;5066250;28;20112;-70
2023/01/11 06:19:06;;;;;;;6.87;4.60;;;;;;;-145.18;100.00;60484.78;5057332;28;20511;-69
2023/01/11 06:21:31;;;;;;;7.57;4.50;;;;;;;-145.18;100.00;60484.78;5054696;28;20118;-69
2023/01/11 06:23:57;;;;;;;9.10;4.90;;;;;;;-145.18;100.00;60484.78;5062700;28;20031;-70
2023/01/11 06:26:22;;;;;;;9.87;6.07;;;;;;;-145.18;100.00;60484.78;5067017;28;20024;-70
2023/01/11 06:28:49;;;;;;;9.87;5.63;;;;;;;-145.18;100.00;60484.78;5071616;28;20353;-70
2023/01/11 06:31:15;;;;;;;8.40;5.33;;;;;;;-145.18;100.00;60484.78;5065074;28;20031;-71
2023/01/11 06:33:41;;;;;;;9.13;6.17;;;;;;;-145.18;100.00;60484.78;5055326;28;20056;-70
2023/01/11 06:36:09;;;;;;;9.27;6.07;;;;;;;-145.18;100.00;60484.78;5067608;28;20484;-69
2023/01/11 06:38:35;;;;;;;9.63;6.90;;;;;;;-145.18;100.00;60484.78;5064469;28;20024;-70
2023/01/11 06:41:02;;;;;;;9.53;5.83;;;;;;;-145.18;100.00;60484.78;5069591;28;20032;-69
2023/01/11 06:43:29;;;;;;;10.27;7.37;;;;;;;-145.18;100.00;60484.78;5056282;28;20484;-70
2023/01/11 06:45:55;;;;;;;8.90;5.97;;;;;;;-145.18;100.00;60484.78;5054747;28;20108;-70
2023/01/11 06:48:22;;;;;;;10.27;6.87;;;;;;;-145.18;100.00;60484.78;5050210;28;20112;-69
2023/01/11 06:50:49;;;;;;;9.00;5.83;;;;;;;-145.18;100.00;60484.78;5056406;28;20112;-69
2023/01/11 06:53:15;;;;;;;9.30;7.00;;;;;;;-145.18;100.00;60484.78;5060358;28;20425;-69
2023/01/11 06:55:41;;;;;;;8.07;4.57;;;;;;;-145.18;100.00;60484.78;5053605;28;20021;-68
2023/01/11 06:58:06;;;;;;;8.93;6.07;;;;;;;-145.18;100.00;60484.78;5059152;28;20017;-69
2023/01/11 07:00:32;;;;;;;8.10;5.40;;;;;;;-145.18;100.00;60484.78;5070795;28;20501;-70
2023/01/11 07:03:04;;;;;;;8.43;5.13;;;;;;;-145.18;100.00;60484.78;5060452;28;20067;-68
2023/01/11 07:05:31;;;;;;;8.27;5.33;;;;;;;-145.18;100.00;60484.78;5047355;28;20048;-69
2023/01/11 07:07:56;;;;;;;8.00;5.40;;;;;;;-145.18;100.00;60484.78;5043585;28;20453;-68
2023/01/11 07:10:22;;;;;;;9.87;6.57;;;;;;;-145.18;100.00;60484.78;5046747;28;20052;-70
2023/01/11 07:12:47;;;;;;;9.30;5.90;;;;;;;-145.18;100.00;60484.78;5049155;28;20051;-69
2023/01/11 07:15:13;;;;;;;9.13;6.27;;;;;;;-145.18;100.00;60484.78;5040358;28;20105;-70
2023/01/11 07:17:38;;;;;;;10.57;6.47;;;;;;;-145.18;100.00;60484.78;5035969;28;20017;-68
2023/01/11 07:20:05;;;;;;;9.90;6.23;;;;;;;-145.18;100.00;60484.78;5053594;28;20104;-70
2023/01/11 07:22:35;;;;;;;9.07;5.80;;;;;;;-145.18;100.00;60484.78;5051314;28;20562;-69
2023/01/11 07:25:01;;;;;;;9.60;6.40;;;;;;;-145.18;100.00;60484.78;5045556;28;20541;-69
2023/01/11 07:27:26;;;;;;;9.97;5.23;;;;;;;-145.18;100.00;60484.78;5052260;28;20500;-70
2023/01/11 07:29:52;;;;;;;10.00;6.40;;;;;;;-145.18;100.00;60484.78;5052641;28;20072;-69
2023/01/11 07:32:18;;;;;;;10.33;6.70;;;;;;;-145.18;100.00;60484.78;5053663;28;20051;-69
2023/01/11 07:34:44;;;;;;;10.03;6.47;;;;;;;-145.18;100.00;60484.78;5053198;28;20024;-69
2023/01/11 07:37:09;;;;;;;11.33;6.53;;;;;;;-145.18;100.00;60484.78;5051605;28;20396;-69
2023/01/11 07:39:35;;;;;;;12.13;7.53;;;;;;;-145.18;100.00;60484.78;5052373;28;20111;-69
2023/01/11 07:44:44;;;;;;;11.57;6.73;;;;;;;-145.18;100.00;60484.78;5052966;28;20032;-70
2023/01/11 07:47:09;;;;;;;11.33;7.00;;;;;;;-145.18;100.00;60484.78;5053053;28;20029;-69
2023/01/11 07:49:35;;;;;;;12.30;7.20;;;;;;;-145.18;100.00;60484.78;5049566;28;20161;-69
2023/01/11 07:52:00;;;;;;;13.87;8.13;;;;;;;-145.18;100.00;60484.78;5043239;28;20464;-69
2023/01/11 07:54:25;;;;;;;12.07;7.37;;;;;;;-145.18;100.00;60484.78;5052334;28;20021;-69
2023/01/11 07:56:51;;;;;;;13.50;7.67;;;;;;;-145.18;100.00;60484.78;5052789;28;20031;-69
2023/01/11 07:59:16;;;;;;;14.43;8.03;;;;;;;-145.18;100.00;60484.78;5053197;28;20029;-70
2023/01/11 08:01:42;;;;;;;13.93;7.90;;;;;;;-145.18;100.00;60484.78;5050742;28;20113;-70
2023/01/11 08:04:10;;;;;;;13.10;7.33;;;;;;;-145.18;100.00;60484.78;5048137;28;20032;-69
2023/01/11 08:06:37;;;;;;;10.23;5.53;;;;;;;-145.18;100.00;60484.78;5045396;28;20159;-69
2023/01/11 08:09:03;;;;;;;14.73;8.83;;;;;;;-145.18;100.00;60484.78;5047106;28;20552;-69
2023/01/11 08:16:56;;;;;;;16.27;9.57;;;;;;;-145.18;100.00;60484.78;5047438;28;20542;-69
2023/01/11 08:19:21;;;;;;;16.00;9.40;;;;;;;-145.18;100.00;60484.78;5050352;28;20033;-69
2023/01/11 08:21:49;;;;;;;17.97;10.03;;;;;;;-145.18;100.00;60484.78;5049784;28;20419;-69
2023/01/11 08:24:14;;;;;;;17.53;10.20;;;;;;;-145.18;100.00;60484.78;5052423;28;20058;-69
2023/01/11 08:26:39;;;;;;;19.47;9.60;;;;;;;-145.18;100.00;60484.78;5047349;28;20509;-69
2023/01/11 08:29:05;;;;;;;19.37;9.60;;;;;;;-145.18;100.00;60484.78;5045316;28;20055;-69
2023/01/11 08:31:30;;;;;;;20.70;9.80;;;;;;;-145.18;100.00;60484.78;5032484;28;20061;-70
2023/01/11 08:33:55;;;;;;;21.97;10.83;;;;;;;-145.18;100.00;60484.78;5044616;28;20495;-69
2023/01/11 08:36:23;;;;;;;19.60;9.60;;;;;;;-145.18;100.00;60484.78;5051897;28;20118;-70
2023/01/11 08:38:52;;;;;;;20.67;9.37;;;;;;;-145.18;100.00;60484.78;5048619;28;20029;-69
2023/01/11 08:41:17;;;;;;;20.17;10.80;;;;;;;-145.18;100.00;60484.78;5048783;28;20033;-70
2023/01/11 08:43:43;;;;;;;21.87;10.43;;;;;;;-145.18;100.00;60484.78;5032354;28;20033;-70
2023/01/11 08:46:09;;;;;;;21.27;10.87;;;;;;;-145.18;100.00;60484.78;5032301;28;20471;-69
2023/01/11 08:48:35;;;;;;;20.07;10.13;;;;;;;-145.18;100.00;60484.78;5034532;28;20473;-70
2023/01/11 08:51:00;;;;;;;20.90;10.63;;;;;;;-145.18;100.00;60484.78;5034718;28;20021;-70
2023/01/11 08:53:26;;;;;;;28.60;12.67;;;;;;;-145.18;100.00;60484.78;5035410;28;20036;-70
2023/01/11 08:55:52;;;;;;;23.97;11.50;;;;;;;-145.18;100.00;60484.78;5048259;28;20028;-69
2023/01/11 08:58:18;;;;;;;24.90;11.60;;;;;;;-145.18;100.00;60484.78;5051939;28;20013;-69
2023/01/11 09:00:43;;;;;;;20.93;10.60;;;;;;;-145.18;100.00;60484.78;5051555;28;20109;-69
2023/01/11 09:03:12;;;;;;;22.40;11.03;;;;;;;-145.18;100.00;60484.78;5051217;28;20025;-70
2023/01/11 09:05:38;;;;;;;22.60;10.97;;;;;;;-145.18;100.00;60484.78;5031094;28;20124;-68
2023/01/11 09:08:04;;;;;;;20.53;11.07;;;;;;;-145.18;100.00;60484.78;5031894;28;20022;-69
2023/01/11 09:10:29;;;;;;;25.53;11.83;;;;;;;-145.18;100.00;60484.78;5039752;28;20420;-70
2023/01/11 09:12:56;;;;;;;31.73;13.30;;;;;;;-145.18;100.00;60484.78;5050644;28;20027;-70
2023/01/11 09:15:22;;;;;;;27.83;12.70;;;;;;;-145.18;100.00;60484.78;5031295;28;20100;-70
2023/01/11 09:17:48;;;;;;;26.00;12.67;;;;;;;-145.18;100.00;60484.78;5035700;28;20033;-69
2023/01/11 09:20:13;;;;;;;29.80;13.43;;;;;;;-145.18;100.00;60484.78;5033259;28;20021;-70
2023/01/11 09:22:39;;;;;;;29.63;13.87;;;;;;;-145.18;100.00;60484.78;5032277;28;20021;-70
2023/01/11 09:25:06;;;;;;;30.83;14.13;;;;;;;-145.18;100.00;60484.78;5038426;28;20108;-69
2023/01/11 09:27:31;;;;;;;37.20;17.10;;;;;;;-145.18;100.00;60484.78;5043073;28;20391;-70
2023/01/11 09:29:57;;;;;;;35.83;17.13;;;;;;;-145.18;100.00;60484.78;5039897;28;20100;-70
2023/01/11 09:32:22;;;;;;;33.93;15.40;;;;;;;-145.18;100.00;60484.78;5051498;28;20021;-69
2023/01/11 09:34:48;;;;;;;28.73;13.63;;;;;;;-145.18;100.00;60484.78;5040850;28;20029;-69
2023/01/11 09:37:16;;;;;;;26.67;12.43;;;;;;;-145.18;100.00;60484.78;5040762;28;20025;-69
2023/01/11 09:39:42;;;;;;;24.40;11.80;;;;;;;-145.18;100.00;60484.78;5031353;28;20025;-70
2023/01/11 09:42:07;;;;;;;23.13;11.47;;;;;;;-145.18;100.00;60484.78;5030338;28;20033;-70
2023/01/11 09:44:50;;;;;;;25.77;11.77;;;;;;;-145.18;100.00;60484.78;5041092;28;20387;-69
2023/01/11 09:47:35;;;;;;;24.57;12.30;;;;;;;-145.18;100.00;60484.78;5055202;28;20070;-70
2023/01/11 09:50:05;;;;;;;25.90;11.73;;;;;;;-145.18;100.00;60484.78;5055373;28;20524;-70
2023/01/11 09:52:41;;;;;;;28.77;11.70;;;;;;;-145.18;100.00;60484.78;5055463;28;20499;-70
2023/01/11 09:55:20;;;;;;;25.47;11.03;;;;;;;-145.18;100.00;60484.78;5041548;28;20544;-69
2023/01/11 09:58:03;;;;;;;29.60;12.10;;;;;;;-145.18;100.00;60484.78;5035017;28;20021;-69
2023/01/11 10:00:36;;;;;;;25.83;11.20;;;;;;;-145.18;100.00;60484.78;5053554;28;20020;-69
2023/01/11 10:03:20;;;;;;;24.97;11.33;;;;;;;-145.18;100.00;60484.78;5054907;28;20033;-69
2023/01/11 10:06:12;;;;;;;25.73;10.53;;;;;;;-145.18;100.00;60484.78;5054536;28;20032;-69
2023/01/11 10:08:52;;;;;;;22.42;10.68;;;;;;;-145.18;100.00;60484.78;5054816;28;20100;-70
2023/01/11 10:11:34;;;;;;;26.90;10.73;;;;;;;-145.18;100.00;60484.78;5055280;28;20057;-69
2023/01/11 10:14:20;;;;;;;22.73;9.70;;;;;;;-145.18;100.00;60484.78;5053892;28;20036;-69
2023/01/11 10:16:55;;;;;;;28.77;11.00;;;;;;;-145.18;100.00;60484.78;5054712;28;20025;-70
2023/01/11 10:19:28;;;;;;;28.73;10.80;;;;;;;-145.18;100.00;60484.78;5046845;28;20024;-69
2023/01/11 10:22:10;;;;;;;19.80;8.23;;;;;;;-145.18;100.00;60484.78;5035019;28;20097;-68
2023/01/11 10:24:48;;;;;;;22.60;9.10;;;;;;;-145.18;100.00;60484.78;5038918;28;20029;-69
2023/01/11 10:27:28;;;;;;;16.13;7.37;;;;;;;-145.18;100.00;60484.78;5034242;28;20034;-68
2023/01/11 10:30:31;;;;;;;21.17;8.43;;;;;;;-145.18;100.00;60484.78;5044974;28;20025;-69
2023/01/11 10:34:29;;;;;;;18.83;7.90;;;;;;;-145.18;100.00;60484.78;5054375;28;20045;-70
2023/01/11 10:36:13;;;;;;;;;;;;;;;-145.18;100.00;60484.78;5045027;28;20397;-69
2023/01/11 10:39:12;;;;;;;16.47;7.50;;;;;;;-145.18;100.00;60484.78;5052364;28;20273;-69
2023/01/11 10:41:58;;;;;;;17.90;6.17;;;;;;;-145.18;100.00;60484.78;5051956;28;20507;-69
2023/01/11 10:44:35;;;;;;;22.40;6.03;;;;;;;-145.18;100.00;60484.78;5054214;28;20024;-69
2023/01/11 10:47:02;;;;;;;16.47;5.33;;;;;;;-145.18;100.00;60484.78;5053993;28;20491;-69
2023/01/11 10:49:50;;;;;;;14.73;4.20;;;;;;;-145.18;100.00;60484.78;5050947;28;20074;-69
2023/01/11 10:52:50;;;;;;;20.63;5.33;;;;;;;-145.18;100.00;60484.78;5053314;28;20468;-70
2023/01/11 10:55:38;;;;;;;14.30;4.30;;;;;;;-145.18;100.00;60484.78;5036577;28;20064;-70
2023/01/11 10:58:16;;;;;;;14.07;4.97;;;;;;;-145.18;100.00;60484.78;5048794;28;20550;-69
2023/01/11 11:00:55;;;;;;;16.23;4.60;;;;;;;-145.18;100.00;60484.78;5053685;28;20059;-70
2023/01/11 11:03:43;;;;;;;15.20;3.90;;;;;;;-145.18;100.00;60484.78;5053791;28;20048;-70
2023/01/11 11:06:21;;;;;;;14.37;4.30;;;;;;;-145.18;100.00;60484.78;5046365;28;20100;-70
2023/01/11 11:09:16;;;;;;;17.57;3.47;;;;;;;-145.18;100.00;60484.78;5033507;28;20112;-70
2023/01/11 11:11:53;;;;;;;12.77;3.80;;;;;;;-145.18;100.00;60484.78;5033364;28;20087;-70
2023/01/11 11:14:34;;;;;;;13.17;3.43;;;;;;;-145.18;100.00;60484.78;5032739;28;20455;-70
2023/01/11 11:17:17;;;;;;;14.90;3.40;;;;;;;-145.18;100.00;60484.78;5052948;28;20017;-70
2023/01/11 11:19:42;;;;;;;12.07;3.03;;;;;;;-145.18;100.00;60484.78;5052511;28;20036;-70
2023/01/11 11:22:11;;;;;;;16.97;2.83;;;;;;;-145.18;100.00;60484.78;5053159;28;20025;-70
2023/01/11 11:24:48;;;;;;;14.87;3.10;;;;;;;-145.18;100.00;60484.78;5051944;28;20021;-70
2023/01/11 11:27:35;;;;;;;16.87;3.00;;;;;;;-145.18;100.00;60484.78;5050088;28;20494;-70
2023/01/11 11:30:02;;;;;;;11.47;2.80;;;;;;;-145.18;100.00;60484.78;5051400;28;20044;-70
2023/01/11 11:32:34;;;;;;;14.77;3.03;;;;;;;-145.18;100.00;60484.78;5052620;28;20059;-70
2023/01/11 11:34:59;;;;;;;8.73;2.40;;;;;;;-145.18;100.00;60484.78;5051719;28;20036;-69
2023/01/11 11:37:30;;;;;;;11.63;2.60;;;;;;;-145.18;100.00;60484.78;5053109;28;20021;-70
2023/01/11 11:39:56;;;;;;;12.77;2.80;;;;;;;-145.18;100.00;60484.78;5052430;28;20048;-70
2023/01/11 11:42:22;;;;;;;14.50;2.97;;;;;;;-145.18;100.00;60484.78;5052346;28;20087;-70
2023/01/11 11:45:09;;;;;;;14.43;2.77;;;;;;;-145.18;100.00;60484.78;5052508;28;20037;-70
2023/01/11 11:47:35;;;;;;;17.23;3.43;;;;;;;-145.18;100.00;60484.78;5044586;28;20025;-71